Time;durP1;ratioP1;P1;durP2;ratioP2;P2;SDS_P1;SDS_P2;PMS_P1;PMS_P2;Temp;Humidity;BMP_temperature;BMP_pressure;BME280_temperature;BME280_humidity;BME280_pressure;Samples;Min_cycle;Max_cycle;Signal;HPM_P1;HPM_P2
2021/10/26 00:00:11;;;;;;;3.60;2.80;;;12.90;99.90;;;;;;4911142;29;20802;-81
2021/10/26 00:02:40;;;;;;;6.83;3.43;;;13.00;99.90;;;;;;4911754;29;20454;-81
2021/10/26 00:05:10;;;;;;;5.23;3.10;;;13.00;99.90;;;;;;4914482;29;20512;-80
2021/10/26 00:07:38;;;;;;;3.10;2.80;;;13.00;99.90;;;;;;4907237;29;20497;-80
2021/10/26 00:10:08;;;;;;;6.23;2.90;;;13.00;99.90;;;;;;4910409;29;20467;-79
2021/10/26 00:12:36;;;;;;;6.37;3.10;;;13.10;99.90;;;;;;4911118;29;20951;-80
2021/10/26 00:15:05;;;;;;;5.33;3.30;;;13.10;99.90;;;;;;4903979;29;20457;-80
2021/10/26 00:17:33;;;;;;;3.47;3.27;;;13.00;99.90;;;;;;4911091;29;20481;-81
2021/10/26 00:20:02;;;;;;;3.87;3.10;;;13.00;99.90;;;;;;4910744;29;20963;-80
2021/10/26 00:22:31;;;;;;;4.13;3.60;;;13.00;99.90;;;;;;4910959;29;20476;-80
2021/10/26 00:24:59;;;;;;;3.93;2.50;;;13.00;99.90;;;;;;4914793;29;20469;-80
2021/10/26 00:27:28;;;;;;;4.20;2.90;;;13.00;99.90;;;;;;4907819;29;20475;-80
2021/10/26 00:29:56;;;;;;;2.90;2.60;;;13.00;99.90;;;;;;4912011;29;20879;-80
2021/10/26 00:32:25;;;;;;;3.40;3.10;;;13.00;99.90;;;;;;4917545;29;20522;-80
2021/10/26 00:34:53;;;;;;;4.40;2.83;;;13.00;99.90;;;;;;4915880;29;20481;-80
2021/10/26 00:37:21;;;;;;;6.40;2.80;;;13.10;99.90;;;;;;4915258;29;21041;-80
2021/10/26 00:39:51;;;;;;;5.17;3.20;;;12.90;99.90;;;;;;4920324;29;20469;-81
2021/10/26 00:42:20;;;;;;;4.57;3.77;;;13.00;99.90;;;;;;4913284;29;20450;-80
2021/10/26 00:44:48;;;;;;;2.80;2.53;;;12.90;99.90;;;;;;4914577;29;20464;-80
2021/10/26 00:47:16;;;;;;;4.33;2.90;;;12.90;99.90;;;;;;4916121;29;20477;-80
2021/10/26 00:49:44;;;;;;;4.00;3.03;;;12.90;99.90;;;;;;4911638;29;20455;-79
2021/10/26 00:52:13;;;;;;;6.10;3.10;;;13.00;99.90;;;;;;4912427;29;20528;-80
2021/10/26 00:54:41;;;;;;;5.20;2.90;;;13.00;99.90;;;;;;4923282;29;20450;-80
2021/10/26 00:57:11;;;;;;;7.47;3.87;;;13.10;99.90;;;;;;4917089;29;20501;-80
2021/10/26 00:59:40;;;;;;;5.00;3.30;;;13.10;99.90;;;;;;4917991;29;20971;-80
2021/10/26 01:02:08;;;;;;;4.00;3.30;;;13.20;99.90;;;;;;4920901;29;20463;-80
2021/10/26 01:04:36;;;;;;;5.50;3.00;;;13.30;99.90;;;;;;4918437;29;20463;-80
2021/10/26 01:07:05;;;;;;;3.73;3.00;;;13.30;99.90;;;;;;4916956;29;20482;-80
2021/10/26 01:09:33;;;;;;;4.07;3.50;;;13.20;99.90;;;;;;4919255;29;20466;-80
2021/10/26 01:12:01;;;;;;;3.80;3.30;;;13.20;99.90;;;;;;4918812;29;21262;-80
2021/10/26 01:14:31;;;;;;;6.70;3.10;;;13.10;99.90;;;;;;4926242;29;20525;-80
2021/10/26 01:17:05;;;;;;;5.37;3.53;;;13.10;99.90;;;;;;4928058;29;20500;-80
2021/10/26 01:19:44;;;;;;;4.17;3.17;;;13.10;99.90;;;;;;4917892;29;20446;-80
2021/10/26 01:22:14;;;;;;;4.10;3.47;;;13.20;99.90;;;;;;4916868;29;20471;-81
2021/10/26 01:24:42;;;;;;;3.83;3.20;;;13.20;99.90;;;;;;4925057;29;20472;-80
2021/10/26 01:27:11;;;;;;;3.17;2.60;;;13.20;99.90;;;;;;4918634;29;20473;-80
2021/10/26 01:29:39;;;;;;;4.37;3.63;;;13.20;99.90;;;;;;4933372;29;20454;-80
2021/10/26 01:32:10;;;;;;;4.33;3.07;;;13.20;99.90;;;;;;4913041;29;20461;-80
2021/10/26 01:34:38;;;;;;;7.80;3.33;;;13.10;99.90;;;;;;4916138;29;20460;-80
2021/10/26 01:37:09;;;;;;;3.23;3.03;;;13.20;99.90;;;;;;4917094;29;20543;-80
2021/10/26 01:39:38;;;;;;;5.17;4.67;;;13.20;99.90;;;;;;4918597;29;20482;-80
2021/10/26 01:42:09;;;;;;;3.93;3.40;;;13.20;99.90;;;;;;4917956;29;20466;-80
2021/10/26 01:44:38;;;;;;;5.37;3.37;;;13.20;99.90;;;;;;4928302;29;20467;-81
2021/10/26 01:47:06;;;;;;;3.73;3.33;;;13.20;99.90;;;;;;4925982;29;20478;-80
2021/10/26 01:49:35;;;;;;;8.83;3.80;;;13.20;99.90;;;;;;4917389;29;20455;-80
2021/10/26 01:52:04;;;;;;;3.83;3.40;;;13.20;99.90;;;;;;4918042;29;20479;-80
2021/10/26 01:54:37;;;;;;;5.27;3.43;;;13.20;99.90;;;;;;4918189;29;20458;-81
2021/10/26 01:57:06;;;;;;;4.03;3.60;;;13.20;99.90;;;;;;4917113;29;20504;-80
2021/10/26 01:59:35;;;;;;;6.10;3.70;;;13.20;99.90;;;;;;4916205;29;20528;-80
2021/10/26 02:02:03;;;;;;;4.23;3.00;;;13.20;99.90;;;;;;4914723;29;20466;-80
2021/10/26 02:04:32;;;;;;;4.73;3.57;;;13.20;99.90;;;;;;4914808;29;20549;-80
2021/10/26 02:07:00;;;;;;;5.63;3.97;;;13.10;99.90;;;;;;4913485;29;20537;-80
2021/10/26 02:09:28;;;;;;;4.40;3.90;;;13.20;99.90;;;;;;4915148;29;20812;-80
2021/10/26 02:11:58;;;;;;;6.20;3.80;;;13.20;99.90;;;;;;4919201;29;20463;-81
2021/10/26 02:14:27;;;;;;;4.17;3.77;;;13.30;99.90;;;;;;4914988;29;20802;-81
2021/10/26 02:16:55;;;;;;;6.17;3.87;;;13.30;99.90;;;;;;4915107;29;20489;-81
2021/10/26 02:19:23;;;;;;;4.67;3.77;;;13.20;99.90;;;;;;4916377;29;20954;-80
2021/10/26 02:21:51;;;;;;;5.47;3.73;;;13.00;99.90;;;;;;4916405;29;20950;-81
2021/10/26 02:24:19;;;;;;;4.40;3.40;;;12.90;99.90;;;;;;4915846;29;20445;-81
2021/10/26 02:26:48;;;;;;;6.40;3.60;;;12.90;99.90;;;;;;4915812;29;20557;-81
2021/10/26 02:29:18;;;;;;;4.90;4.23;;;13.00;1.00;;;;;;4909918;29;20544;-81
2021/10/26 02:31:46;;;;;;;7.47;3.90;;;13.00;1.00;;;;;;4920198;29;20465;-81
2021/10/26 02:34:16;;;;;;;4.20;3.63;;;12.80;1.00;;;;;;4928946;29;20501;-82
2021/10/26 02:36:44;;;;;;;6.27;3.93;;;12.70;1.00;;;;;;4915771;29;21062;-81
2021/10/26 02:39:12;;;;;;;5.70;4.13;;;12.70;1.00;;;;;;4916260;29;20504;-81
2021/10/26 02:41:41;;;;;;;4.30;3.90;;;12.80;1.00;;;;;;4917009;29;20462;-81
2021/10/26 02:44:10;;;;;;;6.33;4.73;;;12.90;1.00;;;;;;4904176;29;20491;-81
2021/10/26 02:46:39;;;;;;;4.60;3.33;;;13.00;1.00;;;;;;4915639;29;20893;-80
2021/10/26 02:49:07;;;;;;;4.77;2.97;;;13.10;1.00;;;;;;4915869;29;20501;-81
2021/10/26 02:51:36;;;;;;;6.50;3.83;;;13.20;1.00;;;;;;4918667;29;20475;-81
2021/10/26 02:54:05;;;;;;;4.00;3.63;;;13.30;1.00;;;;;;4918083;29;20460;-80
2021/10/26 02:56:34;;;;;;;4.10;3.47;;;13.30;1.00;;;;;;4912881;29;21264;-80
2021/10/26 02:59:02;;;;;;;3.80;3.50;;;13.20;1.00;;;;;;4914347;29;20481;-80
2021/10/26 03:01:30;;;;;;;4.27;2.93;;;13.30;1.00;;;;;;4908457;29;20463;-80
2021/10/26 03:04:00;;;;;;;5.03;3.23;;;13.30;1.00;;;;;;4914929;29;20474;-81
2021/10/26 03:06:28;;;;;;;5.40;3.90;;;13.30;1.00;;;;;;4918898;29;20454;-80
2021/10/26 03:08:57;;;;;;;4.70;3.80;;;13.30;1.00;;;;;;4910578;29;20514;-80
2021/10/26 03:11:25;;;;;;;5.43;3.30;;;13.30;1.00;;;;;;4914551;29;20509;-80
2021/10/26 03:13:53;;;;;;;5.70;3.23;;;13.30;1.00;;;;;;4911867;29;20458;-80
2021/10/26 03:16:21;;;;;;;5.87;4.17;;;13.30;1.00;;;;;;4913080;29;20470;-81
2021/10/26 03:18:50;;;;;;;6.67;3.87;;;13.30;1.00;;;;;;4913649;29;20583;-80
2021/10/26 03:21:19;;;;;;;4.90;3.10;;;13.30;1.00;;;;;;4912099;29;20455;-80
2021/10/26 03:23:48;;;;;;;4.93;3.60;;;13.30;1.00;;;;;;4923851;29;20462;-82
2021/10/26 03:26:16;;;;;;;7.57;3.57;;;13.30;1.00;;;;;;4925377;29;20473;-81
2021/10/26 03:28:44;;;;;;;7.53;3.97;;;13.30;1.00;;;;;;4916537;29;21154;-79
2021/10/26 03:31:13;;;;;;;5.97;3.47;;;13.20;1.00;;;;;;4912526;29;21001;-80
2021/10/26 03:33:41;;;;;;;6.90;3.40;;;13.20;1.00;;;;;;4912632;29;20854;-80
2021/10/26 03:36:09;;;;;;;3.17;2.57;;;13.30;1.00;;;;;;4919400;29;20972;-80
2021/10/26 03:38:42;;;;;;;4.40;3.87;;;13.20;1.00;;;;;;4908605;29;20516;-81
2021/10/26 03:41:10;;;;;;;5.63;4.73;;;13.20;1.00;;;;;;4917354;29;20455;-80
2021/10/26 03:43:38;;;;;;;3.43;3.10;;;13.20;1.00;;;;;;4917941;29;20463;-80
2021/10/26 03:46:07;;;;;;;3.37;3.07;;;13.20;1.00;;;;;;4913470;29;21096;-82
2021/10/26 03:48:35;;;;;;;4.63;4.00;;;13.20;1.00;;;;;;4920935;29;20469;-81
2021/10/26 03:51:03;;;;;;;4.07;3.60;;;13.20;1.00;;;;;;4923320;29;20507;-81
2021/10/26 03:53:32;;;;;;;4.13;3.73;;;13.20;1.00;;;;;;4922648;29;20463;-81
2021/10/26 03:56:02;;;;;;;5.03;3.63;;;13.20;1.00;;;;;;4913355;29;20876;-82
2021/10/26 03:58:32;;;;;;;4.70;3.27;;;13.20;1.00;;;;;;4908522;29;20482;-82
2021/10/26 04:01:00;;;;;;;4.90;3.60;;;13.30;1.00;;;;;;4914514;29;20470;-82
2021/10/26 04:03:29;;;;;;;4.20;3.50;;;13.30;1.00;;;;;;4909901;29;20466;-81
2021/10/26 04:06:02;;;;;;;3.37;3.07;;;13.30;1.00;;;;;;4922793;29;20484;-81
2021/10/26 04:08:35;;;;;;;5.60;4.50;;;13.30;1.00;;;;;;4915034;29;20474;-81
2021/10/26 04:11:10;;;;;;;4.70;3.27;;;13.30;1.00;;;;;;4913180;29;20568;-81
2021/10/26 04:13:38;;;;;;;5.50;3.70;;;13.30;1.00;;;;;;4914136;29;20473;-81
2021/10/26 04:16:06;;;;;;;4.50;3.60;;;13.20;1.00;;;;;;4915741;29;20466;-81
2021/10/26 04:18:35;;;;;;;4.13;3.23;;;13.20;1.00;;;;;;4917896;29;20488;-79
2021/10/26 04:21:03;;;;;;;7.63;4.57;;;13.20;1.00;;;;;;4925652;29;20470;-79
2021/10/26 04:23:32;;;;;;;4.50;3.27;;;13.20;1.00;;;;;;4914432;29;20460;-81
2021/10/26 04:26:00;;;;;;;4.50;3.43;;;13.10;1.00;;;;;;4913956;29;20518;-81
2021/10/26 04:28:30;;;;;;;4.07;3.17;;;13.00;1.00;;;;;;4912076;29;20467;-81
2021/10/26 04:31:00;;;;;;;6.30;3.80;;;13.00;1.00;;;;;;4912386;29;20466;-81
2021/10/26 04:33:29;;;;;;;4.93;3.60;;;13.00;1.00;;;;;;4914927;29;20470;-79
2021/10/26 04:35:57;;;;;;;3.17;2.97;;;13.00;1.00;;;;;;4914344;29;20565;-79
2021/10/26 04:38:25;;;;;;;3.93;3.53;;;13.00;1.00;;;;;;4916992;29;20476;-78
2021/10/26 04:40:57;;;;;;;5.00;3.60;;;13.00;1.00;;;;;;4915332;29;20863;-78
2021/10/26 04:43:26;;;;;;;4.43;3.33;;;13.00;1.00;;;;;;4914339;29;20476;-79
2021/10/26 04:45:55;;;;;;;4.80;3.30;;;13.00;1.00;;;;;;4911627;29;20461;-78
2021/10/26 04:48:24;;;;;;;4.30;3.70;;;13.00;1.00;;;;;;4910440;29;20488;-78
2021/10/26 04:50:53;;;;;;;4.10;3.03;;;13.10;1.00;;;;;;4913775;29;20548;-78
2021/10/26 04:53:22;;;;;;;5.07;3.43;;;13.10;1.00;;;;;;4940757;29;20509;-78
2021/10/26 04:55:50;;;;;;;3.90;3.20;;;13.10;1.00;;;;;;4921876;29;20876;-78
2021/10/26 04:58:19;;;;;;;4.87;2.83;;;13.10;1.00;;;;;;4917748;29;20545;-78
2021/10/26 05:00:47;;;;;;;4.07;3.20;;;12.90;1.00;;;;;;4920521;29;20465;-79
2021/10/26 05:03:16;;;;;;;3.30;3.00;;;12.90;1.00;;;;;;4912214;29;20458;-79
2021/10/26 05:05:45;;;;;;;4.80;3.50;;;13.00;1.00;;;;;;4915029;29;20517;-79
2021/10/26 05:08:13;;;;;;;3.53;3.23;;;13.00;1.00;;;;;;4913683;29;20481;-78
2021/10/26 05:10:41;;;;;;;5.17;3.50;;;13.10;1.00;;;;;;4923953;29;20458;-78
2021/10/26 05:13:09;;;;;;;4.73;3.83;;;13.00;1.00;;;;;;4921852;29;20455;-79
2021/10/26 05:15:37;;;;;;;4.70;3.03;;;13.00;1.00;;;;;;4921032;29;20474;-79
2021/10/26 05:18:06;;;;;;;5.10;2.83;;;13.10;1.00;;;;;;4916334;29;20484;-77
2021/10/26 05:20:36;;;;;;;4.47;2.97;;;12.90;1.00;;;;;;4912346;29;20454;-78
2021/10/26 05:23:06;;;;;;;6.47;4.40;;;12.90;1.00;;;;;;4920576;29;20462;-79
2021/10/26 05:25:34;;;;;;;5.40;3.83;;;12.90;1.00;;;;;;4913520;29;20463;-79
2021/10/26 05:28:02;;;;;;;5.93;4.77;;;12.80;1.00;;;;;;4911542;29;20490;-78
2021/10/26 05:30:31;;;;;;;6.13;3.57;;;12.60;99.90;;;;;;4910693;29;20516;-78
2021/10/26 05:32:59;;;;;;;6.00;4.17;;;12.60;99.90;;;;;;4904061;29;20474;-78
2021/10/26 05:35:28;;;;;;;4.73;3.50;;;12.40;99.90;;;;;;4912019;29;20477;-79
2021/10/26 05:37:58;;;;;;;4.83;4.40;;;12.40;1.00;;;;;;4910730;29;20489;-78
2021/10/26 05:40:26;;;;;;;4.50;4.10;;;12.30;1.00;;;;;;4904419;29;20482;-79
2021/10/26 05:42:54;;;;;;;5.60;3.87;;;12.50;99.90;;;;;;4900767;29;20566;-79
2021/10/26 05:45:22;;;;;;;4.93;4.00;;;12.70;99.90;;;;;;4909941;29;20482;-79
2021/10/26 05:47:51;;;;;;;6.60;5.00;;;12.80;99.90;;;;;;4924635;29;20885;-79
2021/10/26 05:50:19;;;;;;;4.90;3.50;;;12.80;99.90;;;;;;4909705;29;20465;-79
2021/10/26 05:52:47;;;;;;;8.03;4.30;;;12.90;99.90;;;;;;4902469;29;20462;-79
2021/10/26 05:55:17;;;;;;;6.30;4.57;;;12.80;99.90;;;;;;4913252;29;20837;-79
2021/10/26 05:57:45;;;;;;;7.80;3.60;;;12.70;99.90;;;;;;4913748;29;20482;-79
2021/10/26 06:00:14;;;;;;;5.10;4.17;;;12.60;99.90;;;;;;4907019;29;20528;-79
2021/10/26 06:02:42;;;;;;;6.83;4.50;;;12.60;99.90;;;;;;4909628;29;20531;-78
2021/10/26 06:05:11;;;;;;;4.60;3.43;;;12.70;99.90;;;;;;4913729;29;20966;-79
2021/10/26 06:07:40;;;;;;;4.93;3.93;;;12.80;99.90;;;;;;4903580;29;20464;-79
2021/10/26 06:10:09;;;;;;;7.27;5.00;;;13.00;99.90;;;;;;4909296;29;20555;-79
2021/10/26 06:12:43;;;;;;;5.43;3.50;;;13.00;99.90;;;;;;4917085;29;20517;-79
2021/10/26 06:15:11;;;;;;;6.43;3.90;;;13.00;99.90;;;;;;4910519;29;20461;-79
2021/10/26 06:17:39;;;;;;;5.63;4.57;;;13.00;99.90;;;;;;4911034;29;20502;-80
2021/10/26 06:20:10;;;;;;;7.00;4.50;;;12.90;99.90;;;;;;4913843;29;20486;-79
2021/10/26 06:22:38;;;;;;;4.63;3.63;;;13.00;99.90;;;;;;4904757;29;20514;-80
2021/10/26 06:25:07;;;;;;;5.30;4.80;;;13.00;99.90;;;;;;4909558;29;20467;-80
2021/10/26 06:27:35;;;;;;;6.23;4.07;;;12.90;99.90;;;;;;4909123;29;21248;-79
2021/10/26 06:30:06;;;;;;;4.13;3.73;;;12.70;1.00;;;;;;4912203;29;20466;-80
2021/10/26 06:32:34;;;;;;;5.53;4.00;;;12.70;1.00;;;;;;4926506;29;20454;-79
2021/10/26 06:35:10;;;;;;;7.00;4.27;;;12.70;1.00;;;;;;4911612;29;20476;-79
2021/10/26 06:37:41;;;;;;;5.60;4.00;;;12.70;1.00;;;;;;4906512;29;20494;-79
2021/10/26 06:40:10;;;;;;;5.17;3.30;;;12.70;1.00;;;;;;4913402;29;20484;-80
2021/10/26 06:42:39;;;;;;;7.53;4.27;;;12.60;1.00;;;;;;4907653;29;20524;-79
2021/10/26 06:45:11;;;;;;;8.40;4.47;;;12.70;4.40;;;;;;4909209;29;20538;-80
2021/10/26 06:47:40;;;;;;;6.17;4.53;;;12.70;1.00;;;;;;4897691;29;20481;-79
2021/10/26 06:50:09;;;;;;;6.20;4.77;;;12.70;1.00;;;;;;4905804;29;20459;-79
2021/10/26 06:52:38;;;;;;;5.67;4.10;;;12.60;33.60;;;;;;4906175;29;20469;-79
2021/10/26 06:55:07;;;;;;;6.07;4.27;;;12.70;41.50;;;;;;4896737;29;20454;-79
2021/10/26 06:57:36;;;;;;;5.60;3.83;;;12.80;1.00;;;;;;4913237;29;20579;-79
2021/10/26 07:00:06;;;;;;;7.73;4.50;;;12.90;1.00;;;;;;4910625;29;20478;-79
2021/10/26 07:02:45;;;;;;;9.40;4.10;;;13.00;1.00;;;;;;4906273;29;20490;-80
2021/10/26 07:05:16;;;;;;;8.03;5.80;;;13.20;1.00;;;;;;4907249;29;20464;-79
2021/10/26 07:07:44;;;;;;;7.77;5.40;;;13.30;99.90;;;;;;4909394;29;20495;-80
2021/10/26 07:10:13;;;;;;;5.70;4.30;;;13.30;99.90;;;;;;4904362;29;20455;-79
2021/10/26 07:12:42;;;;;;;5.50;4.87;;;13.40;99.90;;;;;;4907325;29;20512;-80
2021/10/26 07:15:12;;;;;;;5.77;4.70;;;13.40;99.90;;;;;;4905156;29;20467;-80
2021/10/26 07:17:43;;;;;;;5.20;4.07;;;13.30;99.90;;;;;;4906413;29;20489;-79
2021/10/26 07:20:13;;;;;;;5.70;4.33;;;13.30;99.90;;;;;;4909079;29;20535;-80
2021/10/26 07:22:42;;;;;;;4.20;3.80;;;13.40;99.90;;;;;;4898936;29;20898;-81
2021/10/26 07:25:11;;;;;;;4.43;3.57;;;13.50;99.90;;;;;;4905070;29;20595;-80
2021/10/26 07:27:40;;;;;;;5.33;4.73;;;13.50;99.90;;;;;;4913147;29;20550;-81
2021/10/26 07:30:11;;;;;;;6.67;4.03;;;13.50;99.90;;;;;;4910559;29;20460;-79
2021/10/26 07:32:41;;;;;;;4.77;3.70;;;13.50;99.90;;;;;;4915818;29;20470;-80
2021/10/26 07:35:10;;;;;;;4.30;3.90;;;13.50;99.90;;;;;;4907099;29;20979;-80
2021/10/26 07:37:39;;;;;;;6.33;4.90;;;13.60;1.00;;;;;;4912720;29;20610;-79
2021/10/26 07:40:08;;;;;;;8.63;4.90;;;13.60;1.00;;;;;;4913004;29;20551;-79
2021/10/26 07:42:37;;;;;;;6.13;5.53;;;13.60;1.00;;;;;;4911687;29;20529;-79
2021/10/26 07:45:06;;;;;;;6.90;5.10;;;13.60;1.00;;;;;;4908588;29;20490;-80
2021/10/26 07:47:36;;;;;;;5.67;4.53;;;13.80;99.90;;;;;;4912745;29;20479;-79
2021/10/26 07:50:08;;;;;;;4.40;4.00;;;13.80;1.00;;;;;;4910088;29;20468;-79
2021/10/26 07:52:38;;;;;;;4.67;3.40;;;13.80;1.00;;;;;;4905490;29;20839;-79
2021/10/26 07:55:07;;;;;;;4.57;4.17;;;13.60;1.00;;;;;;4909808;29;21013;-79
2021/10/26 07:57:35;;;;;;;7.67;5.07;;;13.60;99.90;;;;;;4906152;29;20464;-79
2021/10/26 08:00:05;;;;;;;7.53;4.63;;;13.50;1.00;;;;;;4904934;29;20520;-79
2021/10/26 08:02:36;;;;;;;9.53;4.80;;;13.40;1.00;;;;;;4912345;29;20771;-80
2021/10/26 08:05:06;;;;;;;5.50;3.97;;;13.20;49.80;;;;;;4909797;29;20585;-78
2021/10/26 08:07:35;;;;;;;8.13;5.00;;;13.20;99.90;;;;;;4914970;29;20527;-79
2021/10/26 08:10:04;;;;;;;7.20;4.47;;;13.30;30.60;;;;;;4899542;29;20955;-80
2021/10/26 08:12:32;;;;;;;4.90;3.57;;;13.50;1.00;;;;;;4915743;29;20534;-79
2021/10/26 08:15:00;;;;;;;4.33;3.90;;;13.70;1.00;;;;;;4902961;29;20466;-79
2021/10/26 08:17:28;;;;;;;6.30;4.20;;;13.80;1.00;;;;;;4909905;29;20463;-79
2021/10/26 08:19:56;;;;;;;4.90;3.97;;;13.80;1.00;;;;;;4911632;29;20485;-79
2021/10/26 08:22:27;;;;;;;5.20;3.77;;;13.90;1.00;;;;;;4913558;29;20467;-78
2021/10/26 08:24:57;;;;;;;4.83;4.30;;;13.90;1.00;;;;;;4914808;29;20476;-79
2021/10/26 08:27:26;;;;;;;6.00;3.93;;;13.80;1.00;;;;;;4915773;29;20502;-80
2021/10/26 08:30:01;;;;;;;6.50;4.17;;;13.70;99.90;;;;;;4913332;29;20463;-80
2021/10/26 08:35:24;;;;;;;4.80;3.97;;;13.70;99.90;;;;;;4911992;29;20534;-79
2021/10/26 08:37:57;;;;;;;5.40;3.83;;;13.90;99.90;;;;;;4910554;29;20486;-79
2021/10/26 08:40:26;;;;;;;5.63;4.40;;;14.00;99.90;;;;;;4914279;29;20573;-79
2021/10/26 08:42:57;;;;;;;6.37;3.17;;;14.20;99.90;;;;;;4912381;29;20975;-79
2021/10/26 08:45:26;;;;;;;3.57;2.40;;;14.20;99.80;;;;;;4911684;29;20479;-79
2021/10/26 08:47:56;;;;;;;4.37;3.20;;;14.30;1.00;;;;;;4912722;29;20485;-79
2021/10/26 08:50:24;;;;;;;5.67;3.53;;;14.20;99.90;;;;;;4915159;29;20443;-78
2021/10/26 08:52:54;;;;;;;4.07;3.67;;;14.30;1.00;;;;;;4910685;29;20491;-79
2021/10/26 08:55:24;;;;;;;4.27;2.90;;;14.40;1.00;;;;;;4905982;29;20466;-78
2021/10/26 08:57:54;;;;;;;6.00;3.50;;;14.50;1.00;;;;;;4905677;29;20483;-80
2021/10/26 09:00:23;;;;;;;2.70;2.50;;;14.70;96.00;;;;;;4928535;29;20490;-79
2021/10/26 09:02:53;;;;;;;1.60;1.50;;;14.90;1.00;;;;;;4906762;29;20463;-79
2021/10/26 09:05:24;;;;;;;1.87;1.60;;;15.00;1.00;;;;;;4909265;29;20471;-79
2021/10/26 09:08:06;;;;;;;2.57;1.60;;;15.00;57.40;;;;;;4909328;29;20916;-80
2021/10/26 09:10:36;;;;;;;1.93;1.70;;;15.00;12.40;;;;;;4915675;29;20459;-79
2021/10/26 09:18:39;;;;;;;2.97;1.80;;;15.20;1.00;;;;;;4901331;29;21076;-79
2021/10/26 09:21:26;;;;;;;3.90;1.83;;;15.00;1.00;;;;;;4908419;29;21054;-79
2021/10/26 09:23:58;;;;;;;3.93;1.90;;;15.00;1.00;;;;;;4913248;29;20457;-79
2021/10/26 09:26:43;;;;;;;1.93;1.40;;;15.10;1.00;;;;;;4912366;29;20476;-79
2021/10/26 09:29:12;;;;;;;1.90;1.70;;;15.00;1.00;;;;;;4911147;29;20883;-80
2021/10/26 09:31:41;;;;;;;3.00;1.40;;;14.90;1.00;;;;;;4904268;29;20832;-79
2021/10/26 09:34:14;;;;;;;2.93;1.50;;;15.00;1.00;;;;;;4904067;29;20628;-80
2021/10/26 09:36:44;;;;;;;1.70;1.60;;;15.10;1.00;;;;;;4902743;29;20459;-79
2021/10/26 09:39:21;;;;;;;1.93;1.50;;;14.90;1.00;;;;;;4913559;29;20524;-80
2021/10/26 09:42:03;;;;;;;2.80;1.30;;;14.90;1.00;;;;;;4912785;29;20480;-79
2021/10/26 09:44:35;;;;;;;1.63;1.30;;;14.90;1.00;;;;;;4911452;29;20533;-79
2021/10/26 09:47:07;;;;;;;3.83;1.80;;;14.90;1.00;;;;;;4913820;29;20493;-79
2021/10/26 09:49:38;;;;;;;1.30;1.20;;;15.00;1.00;;;;;;4901542;29;20463;-79
2021/10/26 09:52:16;;;;;;;4.77;1.53;;;15.10;1.00;;;;;;4904443;29;20885;-79
2021/10/26 09:54:48;;;;;;;1.60;1.40;;;15.00;1.00;;;;;;4912713;29;20461;-79
2021/10/26 09:57:18;;;;;;;1.20;1.10;;;15.00;1.00;;;;;;4903923;29;20486;-80
2021/10/26 09:59:50;;;;;;;2.10;1.63;;;15.00;1.00;;;;;;4913420;29;20547;-79
2021/10/26 10:02:22;;;;;;;2.70;2.40;;;15.00;1.00;;;;;;4908498;29;20495;-79
2021/10/26 10:05:08;;;;;;;3.10;2.07;;;14.80;1.00;;;;;;4910282;29;20675;-79
2021/10/26 10:07:37;;;;;;;2.23;1.50;;;14.80;1.00;;;;;;4906342;29;20491;-79
2021/10/26 10:10:11;;;;;;;1.77;1.50;;;15.00;1.00;;;;;;4912656;29;20532;-78
2021/10/26 10:12:40;;;;;;;1.93;1.60;;;15.20;1.00;;;;;;4918438;29;20457;-78
2021/10/26 10:15:10;;;;;;;1.70;1.43;;;15.30;1.00;;;;;;4905918;29;20462;-79
2021/10/26 10:17:40;;;;;;;2.00;1.50;;;15.40;1.00;;;;;;4912980;29;20489;-79
2021/10/26 10:20:12;;;;;;;2.00;1.80;;;15.50;1.00;;;;;;4920372;29;20463;-78
2021/10/26 10:22:41;;;;;;;3.60;2.13;;;15.60;1.00;;;;;;4910677;29;20490;-78
2021/10/26 10:25:12;;;;;;;3.10;1.63;;;15.70;1.00;;;;;;4904367;29;20545;-79
2021/10/26 10:27:43;;;;;;;3.53;2.30;;;15.70;1.00;;;;;;4908661;29;20482;-79
2021/10/26 10:30:12;;;;;;;2.23;1.77;;;15.50;1.00;;;;;;4901123;29;20465;-79
2021/10/26 10:32:41;;;;;;;4.03;2.13;;;15.20;1.00;;;;;;4912215;29;20876;-80
2021/10/26 10:35:15;;;;;;;3.63;2.03;;;15.20;1.00;;;;;;4909316;29;20561;-79
2021/10/26 10:37:47;;;;;;;2.07;1.67;;;15.20;1.00;;;;;;4912866;29;20504;-79
2021/10/26 10:40:25;;;;;;;7.50;2.07;;;15.30;1.00;;;;;;4908789;29;20537;-79
2021/10/26 10:42:54;;;;;;;2.93;2.10;;;15.40;59.30;;;;;;4917520;29;20492;-79
2021/10/26 10:45:26;;;;;;;2.07;1.50;;;15.70;1.00;;;;;;4910133;29;20476;-80
2021/10/26 10:47:55;;;;;;;1.80;1.70;;;16.00;1.00;;;;;;4912512;29;20487;-78
2021/10/26 10:50:35;;;;;;;1.60;1.47;;;16.30;1.00;;;;;;4910311;29;20527;-79
2021/10/26 10:53:18;;;;;;;1.50;1.30;;;16.40;1.00;;;;;;4909153;29;20566;-79
2021/10/26 10:55:50;;;;;;;1.40;1.30;;;16.50;99.90;;;;;;4908612;29;20492;-80
2021/10/26 10:58:38;;;;;;;4.90;1.93;;;16.50;99.90;;;;;;4914233;29;21031;-79
2021/10/26 11:01:30;;;;;;;2.93;1.40;;;16.60;99.90;;;;;;4905365;29;20464;-78
2021/10/26 11:04:00;;;;;;;1.20;1.10;;;16.60;99.90;;;;;;4910507;29;20458;-79
2021/10/26 11:06:55;;;;;;;1.30;1.20;;;16.50;99.90;;;;;;4909897;29;20463;-78
2021/10/26 11:09:42;;;;;;;1.60;1.23;;;16.40;99.90;;;;;;4906730;29;20460;-77
2021/10/26 11:12:30;;;;;;;1.70;1.00;;;16.40;99.90;;;;;;4909187;29;20618;-79
2021/10/26 11:15:00;;;;;;;1.90;1.10;;;16.50;99.90;;;;;;4910074;29;20523;-79
2021/10/26 11:18:02;;;;;;;1.30;1.10;;;16.70;99.90;;;;;;4910299;29;20494;-79
2021/10/26 11:20:48;;;;;;;1.90;0.87;;;16.80;99.90;;;;;;4906176;29;20482;-79
2021/10/26 11:23:40;;;;;;;0.83;0.80;;;16.90;99.90;;;;;;4923777;29;20494;-78
2021/10/26 11:26:12;;;;;;;0.87;0.87;;;17.00;99.90;;;;;;4903732;29;20472;-82
2021/10/26 11:28:56;;;;;;;0.80;0.80;;;17.10;99.90;;;;;;4912023;29;20482;-79
2021/10/26 11:31:30;;;;;;;1.37;0.97;;;17.10;99.90;;;;;;4908361;29;20472;-80
2021/10/26 11:34:00;;;;;;;2.23;1.40;;;17.00;99.90;;;;;;4911703;29;20949;-79
2021/10/26 11:36:34;;;;;;;2.73;1.30;;;16.70;99.90;;;;;;4912361;29;20527;-79
2021/10/26 11:39:06;;;;;;;7.00;1.40;;;16.70;99.90;;;;;;4907653;29;20462;-80
2021/10/26 11:41:37;;;;;;;5.13;1.07;;;16.70;99.90;;;;;;4925347;29;20819;-79
2021/10/26 11:44:07;;;;;;;2.73;1.10;;;16.70;99.90;;;;;;4910187;29;20451;-80
2021/10/26 11:46:38;;;;;;;0.83;0.80;;;16.60;99.90;;;;;;4903398;29;20452;-79
2021/10/26 11:49:09;;;;;;;0.80;0.80;;;16.70;99.90;;;;;;4913932;29;21011;-80
2021/10/26 11:51:38;;;;;;;2.33;1.40;;;16.80;99.90;;;;;;4914863;29;20524;-79
2021/10/26 11:54:12;;;;;;;1.07;0.90;;;16.70;99.90;;;;;;4909827;29;20458;-79
2021/10/26 11:56:43;;;;;;;1.20;0.80;;;16.80;99.90;;;;;;4910756;29;20464;-79
2021/10/26 11:59:14;;;;;;;0.80;0.70;;;16.80;99.90;;;;;;4906644;29;20463;-79
2021/10/26 12:01:49;;;;;;;0.60;0.60;;;16.40;99.90;;;;;;4907057;29;21157;-78
2021/10/26 12:04:23;;;;;;;0.73;0.60;;;16.20;99.90;;;;;;4919172;29;20461;-79
2021/10/26 12:06:56;;;;;;;0.60;0.60;;;16.40;99.90;;;;;;4903809;29;20482;-79
2021/10/26 12:09:24;;;;;;;2.37;0.70;;;16.40;99.90;;;;;;4905718;29;20458;-79
2021/10/26 12:11:55;;;;;;;0.70;0.70;;;16.30;99.90;;;;;;4919385;29;20446;-79
2021/10/26 12:14:27;;;;;;;1.47;0.93;;;16.40;99.90;;;;;;4908452;29;20475;-78
2021/10/26 12:17:23;;;;;;;0.70;0.70;;;16.50;99.90;;;;;;4912833;29;20481;-79
2021/10/26 12:19:57;;;;;;;0.97;0.50;;;16.20;99.90;;;;;;4908756;29;21166;-79
2021/10/26 12:22:28;;;;;;;2.97;0.80;;;16.10;99.90;;;;;;4911191;29;20488;-79
2021/10/26 12:25:00;;;;;;;0.60;0.60;;;16.00;99.90;;;;;;4904320;29;21018;-78
2021/10/26 12:27:34;;;;;;;0.73;0.73;;;16.20;99.90;;;;;;4906643;29;20490;-78
2021/10/26 12:30:25;;;;;;;2.73;0.70;;;16.40;99.90;;;;;;4908812;29;20471;-79
2021/10/26 12:33:00;;;;;;;0.80;0.70;;;16.60;99.90;;;;;;4904293;29;20470;-78
2021/10/26 12:35:31;;;;;;;0.93;0.80;;;16.50;99.90;;;;;;4907293;29;20473;-79
2021/10/26 12:38:25;;;;;;;0.77;0.70;;;16.60;99.90;;;;;;4913078;29;20470;-79
2021/10/26 12:40:55;;;;;;;1.37;0.73;;;16.70;99.90;;;;;;4902635;29;20566;-79
2021/10/26 12:43:27;;;;;;;0.77;0.70;;;16.80;99.90;;;;;;4910663;29;20490;-77
2021/10/26 12:46:00;;;;;;;0.70;0.70;;;16.80;99.90;;;;;;4910837;29;20817;-78
2021/10/26 12:48:36;;;;;;;1.10;0.70;;;16.80;99.90;;;;;;4912024;29;20902;-79
2021/10/26 12:51:07;;;;;;;0.80;0.80;;;16.80;99.90;;;;;;4898757;29;20458;-78
2021/10/26 12:53:37;;;;;;;2.97;1.03;;;16.80;99.90;;;;;;4911030;29;20464;-80
2021/10/26 12:56:18;;;;;;;1.17;0.70;;;16.90;99.90;;;;;;4901509;29;20484;-78
2021/10/26 12:58:48;;;;;;;1.83;0.80;;;16.90;99.90;;;;;;4916640;29;20476;-78
2021/10/26 13:01:33;;;;;;;1.20;0.90;;;17.00;99.90;;;;;;4914253;29;20458;-78
2021/10/26 13:04:08;;;;;;;0.70;0.53;;;17.00;99.90;;;;;;4914481;29;20493;-78
2021/10/26 13:06:48;;;;;;;1.20;0.70;;;17.00;99.90;;;;;;4912138;29;20467;-78
2021/10/26 13:09:34;;;;;;;1.60;0.70;;;17.00;99.90;;;;;;4911377;29;20462;-78
2021/10/26 13:12:08;;;;;;;2.83;1.20;;;16.90;99.90;;;;;;4909085;29;20522;-78
2021/10/26 13:14:40;;;;;;;1.40;0.67;;;16.90;99.90;;;;;;4909595;29;21038;-78
2021/10/26 13:17:32;;;;;;;1.97;0.70;;;17.00;99.90;;;;;;4912535;29;20483;-78